Time;durP1;ratioP1;P1;durP2;ratioP2;P2;SDS_P1;SDS_P2;PMS_P1;PMS_P2;Temp;Humidity;BMP_temperature;BMP_pressure;BME280_temperature;BME280_humidity;BME280_pressure;Samples;Min_cycle;Max_cycle;Signal;HPM_P1;HPM_P2
2023/03/02 00:00:55;;;;;;;111.43;57.42;;;;;;;;;;5014857;28;20038;-62
2023/03/02 00:03:20;;;;;;;113.25;55.95;;;;;;;;;;5015153;28;20048;-62
2023/03/02 00:05:46;;;;;;;110.93;54.83;;;;;;;;;;5014845;28;20407;-62
2023/03/02 00:08:12;;;;;;;104.55;51.95;;;;;;;;;;5014880;28;20076;-62
2023/03/02 00:10:37;;;;;;;111.63;55.42;;;;;;;;;;5014717;28;20477;-57
2023/03/02 00:13:03;;;;;;;73.43;36.88;;;;;;;;;;5014004;28;20037;-58
2023/03/02 00:15:28;;;;;;;64.82;33.63;;;;;;;;;;5014690;28;20109;-58
2023/03/02 00:17:54;;;;;;;61.53;32.75;;;;;;;;;;5014902;28;20060;-61
2023/03/02 00:20:19;;;;;;;58.13;30.38;;;;;;;;;;5014674;28;20400;-61
2023/03/02 00:22:45;;;;;;;55.28;30.02;;;;;;;;;;5014530;28;20037;-63
2023/03/02 00:25:12;;;;;;;44.10;25.23;;;;;;;;;;5014543;28;20117;-63
2023/03/02 00:27:37;;;;;;;47.00;25.35;;;;;;;;;;5014468;28;20030;-63
2023/03/02 00:30:03;;;;;;;57.78;30.25;;;;;;;;;;5014493;28;20049;-63
2023/03/02 00:32:28;;;;;;;60.60;31.77;;;;;;;;;;5014592;28;20044;-63
2023/03/02 00:34:53;;;;;;;63.20;32.38;;;;;;;;;;5014473;28;20116;-62
2023/03/02 00:37:19;;;;;;;62.08;32.45;;;;;;;;;;5014360;28;20046;-62
2023/03/02 00:39:44;;;;;;;64.88;33.08;;;;;;;;;;5014350;28;20033;-61
2023/03/02 00:42:09;;;;;;;63.47;33.22;;;;;;;;;;5014236;28;20501;-61
2023/03/02 00:44:35;;;;;;;63.13;33.25;;;;;;;;;;5014322;28;20080;-61
2023/03/02 00:47:00;;;;;;;59.47;30.77;;;;;;;;;;5014162;28;20041;-61
2023/03/02 00:49:25;;;;;;;57.67;31.17;;;;;;;;;;5014111;28;20045;-62
2023/03/02 00:51:51;;;;;;;63.17;32.75;;;;;;;;;;4996671;28;20398;-57
2023/03/02 00:54:16;;;;;;;63.22;32.50;;;;;;;;;;4996471;28;20410;-57
2023/03/02 00:56:41;;;;;;;74.13;35.17;;;;;;;;;;5014152;28;20121;-57
2023/03/02 00:59:27;;;;;;;70.47;35.08;;;;;;;;;;4996718;28;20379;-57
2023/03/02 01:02:02;;;;;;;71.50;35.80;;;;;;;;;;4996315;28;20449;-57
2023/03/02 01:04:32;;;;;;;71.47;36.35;;;;;;;;;;5012447;28;20466;-57
2023/03/02 01:06:58;;;;;;;90.68;42.30;;;;;;;;;;5013860;28;20057;-57
2023/03/02 01:09:23;;;;;;;83.85;39.63;;;;;;;;;;5014125;28;20395;-57
2023/03/02 01:11:49;;;;;;;68.93;34.38;;;;;;;;;;5013842;28;20113;-61
2023/03/02 01:14:14;;;;;;;69.10;34.80;;;;;;;;;;4996495;28;20041;-61
2023/03/02 01:16:39;;;;;;;63.53;33.55;;;;;;;;;;4996099;28;20140;-61
2023/03/02 01:19:05;;;;;;;69.45;35.42;;;;;;;;;;4996151;28;20045;-61
2023/03/02 01:21:31;;;;;;;50.13;27.92;;;;;;;;;;5013804;28;20034;-61
2023/03/02 01:23:56;;;;;;;53.60;27.73;;;;;;;;;;5013803;28;20041;-61
2023/03/02 01:26:22;;;;;;;55.05;27.45;;;;;;;;;;5013695;28;20089;-63
2023/03/02 01:28:54;;;;;;;52.40;26.92;;;;;;;;;;4996275;28;20041;-63
2023/03/02 01:31:19;;;;;;;52.97;26.75;;;;;;;;;;5013597;28;20049;-62
2023/03/02 01:33:44;;;;;;;54.65;26.42;;;;;;;;;;4996022;28;20030;-63
2023/03/02 01:36:10;;;;;;;54.47;28.13;;;;;;;;;;5013433;28;20034;-62
2023/03/02 01:38:35;;;;;;;55.30;28.33;;;;;;;;;;5013540;28;20038;-63
2023/03/02 01:41:01;;;;;;;53.30;27.38;;;;;;;;;;4996145;28;20038;-62
2023/03/02 01:43:28;;;;;;;52.47;28.20;;;;;;;;;;5013541;28;20092;-62
2023/03/02 01:45:56;;;;;;;53.15;27.73;;;;;;;;;;4995903;28;20053;-62
2023/03/02 01:48:41;;;;;;;53.95;27.65;;;;;;;;;;4995857;28;20030;-63
2023/03/02 01:51:07;;;;;;;49.45;27.38;;;;;;;;;;5013714;28;20058;-63
2023/03/02 01:53:34;;;;;;;52.22;27.15;;;;;;;;;;4996095;28;20501;-62
2023/03/02 01:56:02;;;;;;;54.40;27.95;;;;;;;;;;4995816;28;20034;-62
2023/03/02 01:58:30;;;;;;;50.15;27.63;;;;;;;;;;4997769;28;20374;-63
2023/03/02 02:00:56;;;;;;;54.33;27.98;;;;;;;;;;4996037;28;20095;-62
2023/03/02 02:03:27;;;;;;;51.75;27.55;;;;;;;;;;4995801;28;20124;-62
2023/03/02 02:05:52;;;;;;;;;;;;;;;;;;4996072;28;20125;-62
2023/03/02 02:08:18;;;;;;;50.85;26.85;;;;;;;;;;5013399;28;20404;-62
2023/03/02 02:10:43;;;;;;;50.08;26.38;;;;;;;;;;5013325;28;20101;-62
2023/03/02 02:13:09;;;;;;;47.40;25.88;;;;;;;;;;4995662;28;20048;-58
2023/03/02 02:15:35;;;;;;;52.30;26.77;;;;;;;;;;4995751;28;20041;-58
2023/03/02 02:18:02;;;;;;;48.47;25.85;;;;;;;;;;5013237;28;20042;-58
2023/03/02 02:20:30;;;;;;;53.90;27.80;;;;;;;;;;4995672;28;20041;-58
2023/03/02 02:23:02;;;;;;;54.03;27.67;;;;;;;;;;5013077;28;20042;-57
2023/03/02 02:25:30;;;;;;;51.13;27.02;;;;;;;;;;5013229;28;20065;-57
2023/03/02 02:27:56;;;;;;;54.67;27.95;;;;;;;;;;4995927;28;20042;-58
2023/03/02 02:30:22;;;;;;;51.45;28.23;;;;;;;;;;4995493;28;20108;-58
2023/03/02 02:32:48;;;;;;;59.50;30.63;;;;;;;;;;5000336;23;20055;-62
2023/03/02 02:35:13;;;;;;;51.10;26.60;;;;;;;;;;4996507;23;20514;-58
2023/03/02 02:37:43;;;;;;;49.83;27.70;;;;;;;;;;4956305;29;20066;-58
2023/03/02 02:40:47;;;;;;;52.92;26.63;;;;;;;;;;4956946;29;20138;-57
2023/03/02 02:43:17;;;;;;;49.42;25.95;;;;;;;;;;4887111;29;20152;-57
2023/03/02 02:45:43;;;;;;;47.95;24.35;;;;;;;;;;4917895;29;20082;-57
2023/03/02 02:48:14;;;;;;;48.80;25.00;;;;;;;;;;4921376;29;20038;-57
2023/03/02 02:50:39;;;;;;;48.08;26.65;;;;;;;;;;4958011;29;20042;-57
2023/03/02 02:53:06;;;;;;;52.13;27.08;;;;;;;;;;4957947;29;20039;-57
2023/03/02 02:55:32;;;;;;;52.50;26.73;;;;;;;;;;4960049;28;20535;-57
2023/03/02 02:57:59;;;;;;;52.05;26.90;;;;;;;;;;4992210;28;20067;-57
2023/03/02 03:00:25;;;;;;;62.45;29.25;;;;;;;;;;4977206;28;20502;-58
2023/03/02 03:02:54;;;;;;;54.28;28.00;;;;;;;;;;4941925;28;20066;-58
2023/03/02 03:05:20;;;;;;;48.35;25.33;;;;;;;;;;4956550;29;20035;-57
2023/03/02 03:07:45;;;;;;;41.83;24.02;;;;;;;;;;4956849;28;20035;-58
2023/03/02 03:10:29;;;;;;;45.72;24.98;;;;;;;;;;4940479;29;20063;-58
2023/03/02 03:12:55;;;;;;;52.80;26.38;;;;;;;;;;4942361;28;20475;-58
2023/03/02 03:15:21;;;;;;;49.88;26.77;;;;;;;;;;4956774;29;20038;-57
2023/03/02 03:17:52;;;;;;;50.08;25.90;;;;;;;;;;4956750;28;20514;-57
2023/03/02 03:20:18;;;;;;;53.08;26.77;;;;;;;;;;4956215;29;20042;-56
2023/03/02 03:22:43;;;;;;;51.67;25.85;;;;;;;;;;4956228;28;20452;-56
2023/03/02 03:25:14;;;;;;;49.38;26.00;;;;;;;;;;4956098;29;20407;-56
2023/03/02 03:27:41;;;;;;;44.88;24.63;;;;;;;;;;4940045;29;20039;-56
2023/03/02 03:30:08;;;;;;;47.17;24.77;;;;;;;;;;4956066;29;20503;-56
2023/03/02 03:32:34;;;;;;;50.55;25.50;;;;;;;;;;4955980;29;20026;-56
2023/03/02 03:34:59;;;;;;;41.92;24.00;;;;;;;;;;4958556;28;20109;-57
2023/03/02 03:37:29;;;;;;;45.38;23.70;;;;;;;;;;4959606;28;20042;-56
2023/03/02 03:39:54;;;;;;;42.30;22.90;;;;;;;;;;4976374;28;20031;-57
2023/03/02 03:42:19;;;;;;;44.15;23.92;;;;;;;;;;4958991;28;20049;-57
2023/03/02 03:44:45;;;;;;;43.42;24.13;;;;;;;;;;4958909;28;20468;-57
2023/03/02 03:47:11;;;;;;;44.13;24.95;;;;;;;;;;4990632;28;20046;-58
2023/03/02 03:49:36;;;;;;;47.78;25.35;;;;;;;;;;4990606;28;20031;-57
2023/03/02 03:52:03;;;;;;;49.28;25.48;;;;;;;;;;4958793;28;20037;-57
2023/03/02 03:54:29;;;;;;;56.33;27.73;;;;;;;;;;4991017;28;20039;-58
2023/03/02 03:56:55;;;;;;;54.08;26.33;;;;;;;;;;4991120;28;20031;-58
2023/03/02 03:59:21;;;;;;;57.45;26.88;;;;;;;;;;4975994;28;20503;-58
2023/03/02 04:01:56;;;;;;;53.80;25.88;;;;;;;;;;4958573;28;20034;-58
2023/03/02 04:04:28;;;;;;;49.72;25.92;;;;;;;;;;4958535;28;20039;-58
2023/03/02 04:06:54;;;;;;;46.17;25.58;;;;;;;;;;4990685;28;20039;-58
2023/03/02 04:09:20;;;;;;;53.38;26.08;;;;;;;;;;4974640;28;20057;-58
2023/03/02 04:11:47;;;;;;;44.55;24.50;;;;;;;;;;4990721;28;20033;-56
2023/03/02 04:14:13;;;;;;;43.80;23.98;;;;;;;;;;4990673;28;20035;-57
2023/03/02 04:16:38;;;;;;;47.35;25.00;;;;;;;;;;4990641;28;20097;-62
2023/03/02 04:19:08;;;;;;;51.70;25.05;;;;;;;;;;4958755;28;20066;-62
2023/03/02 04:21:35;;;;;;;55.72;32.28;;;;;;;;;;4958259;28;20022;-63
2023/03/02 04:24:01;;;;;;;67.75;37.67;;;;;;;;;;4958305;28;20097;-63
2023/03/02 04:26:26;;;;;;;71.63;38.30;;;;;;;;;;4958174;28;20031;-63
2023/03/02 04:28:52;;;;;;;77.65;41.45;;;;;;;;;;4975483;28;20042;-63
2023/03/02 04:31:18;;;;;;;78.97;40.70;;;;;;;;;;4958112;28;20053;-61
2023/03/02 04:33:43;;;;;;;63.10;31.58;;;;;;;;;;4975269;28;20502;-60
2023/03/02 04:36:09;;;;;;;48.78;24.90;;;;;;;;;;4954624;29;20423;-60
2023/03/02 04:38:34;;;;;;;42.55;24.50;;;;;;;;;;4954831;29;20039;-61
2023/03/02 04:41:00;;;;;;;39.83;24.13;;;;;;;;;;4974266;28;20043;-61
2023/03/02 04:43:26;;;;;;;42.58;24.83;;;;;;;;;;4975122;28;20172;-55
2023/03/02 04:45:54;;;;;;;71.80;35.55;;;;;;;;;;4974980;28;20066;-56
2023/03/02 04:48:20;;;;;;;109.53;51.45;;;;;;;;;;4975088;28;20046;-56
2023/03/02 04:50:46;;;;;;;168.18;73.57;;;;;;;;;;4975025;28;20092;-57
2023/03/02 04:53:11;;;;;;;163.10;71.65;;;;;;;;;;4974928;28;20109;-56
2023/03/02 04:55:37;;;;;;;177.40;73.20;;;;;;;;;;4974427;28;20023;-56
2023/03/02 04:58:02;;;;;;;110.22;51.33;;;;;;;;;;4956843;28;20074;-56
2023/03/02 05:00:27;;;;;;;138.57;62.50;;;;;;;;;;4974607;28;20030;-55
2023/03/02 05:02:53;;;;;;;119.05;54.38;;;;;;;;;;4973138;28;20038;-55
2023/03/02 05:05:20;;;;;;;53.45;28.58;;;;;;;;;;4974404;28;20043;-55
2023/03/02 05:07:45;;;;;;;47.75;26.50;;;;;;;;;;4954192;28;20039;-56
2023/03/02 05:10:11;;;;;;;45.97;25.75;;;;;;;;;;4974769;28;20567;-55
2023/03/02 05:12:54;;;;;;;41.17;23.98;;;;;;;;;;4974760;28;20023;-56
2023/03/02 05:15:45;;;;;;;46.50;24.52;;;;;;;;;;4954300;29;20061;-58
2023/03/02 05:18:11;;;;;;;58.40;31.50;;;;;;;;;;4970886;28;20470;-57
2023/03/02 05:20:36;;;;;;;64.35;33.88;;;;;;;;;;4973756;28;20046;-58
2023/03/02 05:23:04;;;;;;;59.05;31.55;;;;;;;;;;4973788;28;20059;-58
2023/03/02 05:25:31;;;;;;;57.40;32.33;;;;;;;;;;4937350;29;20054;-56
2023/03/02 05:27:56;;;;;;;55.42;31.50;;;;;;;;;;4972138;28;20031;-56
2023/03/02 05:30:22;;;;;;;57.08;32.00;;;;;;;;;;4973782;28;20046;-55
2023/03/02 05:32:48;;;;;;;60.05;32.78;;;;;;;;;;4972184;28;20081;-56
2023/03/02 05:35:13;;;;;;;64.00;33.72;;;;;;;;;;4952010;29;20727;-55
2023/03/02 05:37:41;;;;;;;78.82;40.20;;;;;;;;;;4952171;29;20386;-57
2023/03/02 05:40:08;;;;;;;53.65;28.45;;;;;;;;;;4972204;28;20079;-56
2023/03/02 05:42:34;;;;;;;44.60;24.80;;;;;;;;;;4952213;29;20093;-56
2023/03/02 05:45:02;;;;;;;41.55;25.20;;;;;;;;;;4971374;28;20475;-55
2023/03/02 05:47:27;;;;;;;47.08;27.30;;;;;;;;;;4972339;28;20082;-55
2023/03/02 05:49:52;;;;;;;44.83;26.08;;;;;;;;;;4973283;28;20039;-61
2023/03/02 05:52:18;;;;;;;45.20;26.20;;;;;;;;;;4973478;28;20050;-61
2023/03/02 05:54:43;;;;;;;55.33;31.00;;;;;;;;;;4953389;28;20036;-64
2023/03/02 05:57:09;;;;;;;58.20;31.45;;;;;;;;;;4973582;28;20039;-61
2023/03/02 05:59:34;;;;;;;60.05;32.35;;;;;;;;;;4973422;28;20446;-61
2023/03/02 06:01:59;;;;;;;62.28;32.72;;;;;;;;;;4973716;28;20125;-61
2023/03/02 06:04:25;;;;;;;60.83;34.08;;;;;;;;;;4952993;29;20077;-61
2023/03/02 06:06:51;;;;;;;58.92;32.97;;;;;;;;;;4971019;28;20408;-61
2023/03/02 06:09:16;;;;;;;49.03;29.08;;;;;;;;;;4973272;28;20042;-61
2023/03/02 06:11:42;;;;;;;54.80;31.58;;;;;;;;;;4974869;28;20030;-61
2023/03/02 06:14:07;;;;;;;57.35;31.80;;;;;;;;;;4959542;28;20106;-63
2023/03/02 06:16:32;;;;;;;57.33;31.27;;;;;;;;;;4975146;28;20051;-65
2023/03/02 06:18:58;;;;;;;57.33;33.22;;;;;;;;;;4975972;28;20055;-66
2023/03/02 06:21:23;;;;;;;62.67;34.22;;;;;;;;;;4954645;29;20085;-67
2023/03/02 06:23:48;;;;;;;59.53;34.60;;;;;;;;;;4956657;28;20451;-68
2023/03/02 06:26:14;;;;;;;59.75;33.75;;;;;;;;;;4977065;28;20479;-68
2023/03/02 06:28:39;;;;;;;58.83;33.60;;;;;;;;;;4978002;28;20058;-64
2023/03/02 06:31:07;;;;;;;64.03;34.90;;;;;;;;;;4977698;28;20502;-63
2023/03/02 06:33:33;;;;;;;63.65;36.13;;;;;;;;;;4957509;29;20035;-63
2023/03/02 06:35:58;;;;;;;58.00;34.47;;;;;;;;;;4976209;28;20491;-63
2023/03/02 06:38:23;;;;;;;76.00;37.95;;;;;;;;;;4957122;29;20125;-63
2023/03/02 06:40:48;;;;;;;79.35;39.63;;;;;;;;;;4975641;28;20042;-63
2023/03/02 06:43:14;;;;;;;98.38;47.63;;;;;;;;;;4977531;28;20058;-63
2023/03/02 06:45:39;;;;;;;119.88;52.80;;;;;;;;;;4956899;29;20039;-64
2023/03/02 06:48:05;;;;;;;108.60;48.88;;;;;;;;;;4976808;28;20027;-64
2023/03/02 06:50:30;;;;;;;111.30;50.28;;;;;;;;;;4977336;28;20039;-63
2023/03/02 06:52:55;;;;;;;114.32;51.53;;;;;;;;;;4977346;28;20372;-63
2023/03/02 06:55:21;;;;;;;115.53;52.03;;;;;;;;;;4977273;28;20041;-63
2023/03/02 06:57:46;;;;;;;73.60;37.72;;;;;;;;;;4977533;28;20177;-63
2023/03/02 07:00:15;;;;;;;66.78;35.97;;;;;;;;;;4977264;28;20090;-63
2023/03/02 07:02:41;;;;;;;64.93;36.33;;;;;;;;;;4976373;28;20121;-58
2023/03/02 07:05:06;;;;;;;70.57;37.63;;;;;;;;;;4976021;28;20090;-58
2023/03/02 07:07:31;;;;;;;71.90;38.28;;;;;;;;;;4975868;28;20478;-58
2023/03/02 07:09:57;;;;;;;73.45;39.75;;;;;;;;;;4957338;28;20031;-58
2023/03/02 07:12:22;;;;;;;73.97;40.10;;;;;;;;;;4975813;28;20471;-58
2023/03/02 07:14:47;;;;;;;74.43;39.78;;;;;;;;;;4975809;28;20041;-58
2023/03/02 07:17:12;;;;;;;67.60;38.95;;;;;;;;;;4976835;28;20042;-58
2023/03/02 07:19:38;;;;;;;71.10;39.03;;;;;;;;;;4976881;28;20043;-58
2023/03/02 07:22:04;;;;;;;68.22;37.80;;;;;;;;;;4976843;28;20039;-58
2023/03/02 07:24:30;;;;;;;72.35;38.08;;;;;;;;;;4956180;29;20404;-58
2023/03/02 07:26:55;;;;;;;71.15;37.70;;;;;;;;;;4975629;28;20137;-58
2023/03/02 07:29:31;;;;;;;64.70;34.97;;;;;;;;;;5021870;23;20133;-58
2023/03/02 07:31:59;;;;;;;68.88;38.33;;;;;;;;;;4996584;23;20469;-58
2023/03/02 07:34:25;;;;;;;79.32;42.67;;;;;;;;;;5035412;28;20072;-58
2023/03/02 07:36:51;;;;;;;96.40;48.70;;;;;;;;;;5035390;28;20485;-58
2023/03/02 07:39:17;;;;;;;89.28;46.85;;;;;;;;;;5035290;28;20052;-58
2023/03/02 07:41:43;;;;;;;85.43;45.33;;;;;;;;;;5035577;28;20029;-58
2023/03/02 07:44:08;;;;;;;59.78;32.30;;;;;;;;;;5017420;28;20041;-58
2023/03/02 07:46:33;;;;;;;39.92;22.90;;;;;;;;;;5017697;28;20046;-58
2023/03/02 07:48:59;;;;;;;32.53;19.15;;;;;;;;;;5035128;28;20037;-58
2023/03/02 07:51:24;;;;;;;33.83;19.10;;;;;;;;;;5017430;28;20465;-58
2023/03/02 07:53:50;;;;;;;34.67;20.08;;;;;;;;;;5035035;28;20030;-58
2023/03/02 07:56:15;;;;;;;30.95;19.92;;;;;;;;;;5034987;28;20527;-58
2023/03/02 07:58:40;;;;;;;35.25;19.92;;;;;;;;;;5017146;28;20037;-58
2023/03/02 08:01:06;;;;;;;37.42;25.40;;;;;;;;;;5017176;28;20087;-58
2023/03/02 08:03:31;;;;;;;39.00;27.13;;;;;;;;;;5034811;28;20033;-58
2023/03/02 08:05:57;;;;;;;29.08;18.67;;;;;;;;;;5016947;28;20389;-58
2023/03/02 08:08:22;;;;;;;31.13;20.83;;;;;;;;;;5034719;28;20432;-61
2023/03/02 08:10:47;;;;;;;27.98;17.60;;;;;;;;;;5035238;28;20061;-61
2023/03/02 08:13:13;;;;;;;29.10;18.65;;;;;;;;;;5034576;28;20406;-61
2023/03/02 08:15:38;;;;;;;26.15;17.02;;;;;;;;;;5034564;28;20038;-61
2023/03/02 08:18:03;;;;;;;25.17;16.48;;;;;;;;;;5034466;28;20456;-61
2023/03/02 08:20:29;;;;;;;25.73;16.42;;;;;;;;;;5034443;28;20026;-61
2023/03/02 08:22:54;;;;;;;29.08;16.98;;;;;;;;;;5035020;28;20041;-61
2023/03/02 08:25:19;;;;;;;25.38;16.42;;;;;;;;;;5016640;28;20045;-61
2023/03/02 08:27:45;;;;;;;25.33;15.82;;;;;;;;;;5034298;28;20045;-61
2023/03/02 08:30:11;;;;;;;28.48;17.27;;;;;;;;;;5034555;28;20115;-61
2023/03/02 08:32:36;;;;;;;24.70;15.85;;;;;;;;;;5016390;28;20044;-63
2023/03/02 08:35:02;;;;;;;27.42;16.48;;;;;;;;;;5033690;28;20041;-63
2023/03/02 08:37:28;;;;;;;27.88;16.85;;;;;;;;;;5034443;28;20034;-63
2023/03/02 08:39:53;;;;;;;27.65;16.95;;;;;;;;;;5034152;28;20045;-63
2023/03/02 08:42:18;;;;;;;32.42;16.75;;;;;;;;;;5034661;28;20080;-63
2023/03/02 08:44:43;;;;;;;25.52;16.33;;;;;;;;;;5034100;28;20404;-63
2023/03/02 08:47:09;;;;;;;26.58;16.35;;;;;;;;;;5034017;28;20037;-63
2023/03/02 08:49:36;;;;;;;22.63;14.82;;;;;;;;;;5034001;28;20545;-63
2023/03/02 08:52:02;;;;;;;23.80;14.93;;;;;;;;;;5034196;28;20037;-63
2023/03/02 08:54:27;;;;;;;30.10;18.08;;;;;;;;;;5034195;28;20124;-63
2023/03/02 08:56:53;;;;;;;27.70;16.40;;;;;;;;;;5016597;28;20056;-63
2023/03/02 08:59:19;;;;;;;25.10;15.52;;;;;;;;;;5016120;28;20029;-63
2023/03/02 09:01:48;;;;;;;28.27;16.17;;;;;;;;;;5016589;28;20041;-63
2023/03/02 09:04:13;;;;;;;31.55;19.75;;;;;;;;;;5033744;28;20053;-63
2023/03/02 09:06:39;;;;;;;28.83;16.42;;;;;;;;;;5033893;28;20041;-63
2023/03/02 09:09:05;;;;;;;27.77;15.73;;;;;;;;;;5016339;28;20112;-63
2023/03/02 09:11:31;;;;;;;26.15;15.95;;;;;;;;;;4999638;28;20496;-63
2023/03/02 09:13:56;;;;;;;25.65;16.05;;;;;;;;;;5033831;28;20041;-63
2023/03/02 09:16:23;;;;;;;23.02;14.25;;;;;;;;;;5033606;28;20038;-63
2023/03/02 09:18:48;;;;;;;25.73;16.25;;;;;;;;;;5015829;28;20409;-63
2023/03/02 09:21:14;;;;;;;25.00;13.75;;;;;;;;;;5033524;28;20041;-63
2023/03/02 09:23:39;;;;;;;22.85;13.63;;;;;;;;;;5033543;28;20037;-63
2023/03/02 09:26:05;;;;;;;18.83;12.15;;;;;;;;;;5033407;28;20443;-63
2023/03/02 09:28:30;;;;;;;26.02;15.65;;;;;;;;;;5033516;28;20378;-58
2023/03/02 09:30:57;;;;;;;19.17;12.25;;;;;;;;;;5015681;28;20056;-58
2023/03/02 09:33:22;;;;;;;20.85;11.80;;;;;;;;;;5015833;28;20038;-58
2023/03/02 09:35:48;;;;;;;26.27;14.32;;;;;;;;;;5033420;28;20040;-58
2023/03/02 09:38:16;;;;;;;23.38;14.73;;;;;;;;;;5033640;28;20049;-58
2023/03/02 09:40:50;;;;;;;25.70;13.63;;;;;;;;;;5033621;28;20068;-58
2023/03/02 09:43:25;;;;;;;21.90;12.77;;;;;;;;;;5033320;28;20037;-59
2023/03/02 09:45:56;;;;;;;19.85;12.25;;;;;;;;;;5035447;28;20147;-58
2023/03/02 09:48:42;;;;;;;20.45;12.52;;;;;;;;;;5037408;28;20037;-63
2023/03/02 09:51:23;;;;;;;23.23;13.40;;;;;;;;;;5037888;28;20068;-63
2023/03/02 09:53:59;;;;;;;27.45;13.55;;;;;;;;;;5037551;28;20069;-63
2023/03/02 09:56:25;;;;;;;23.35;12.32;;;;;;;;;;5037976;28;20120;-63
2023/03/02 09:58:54;;;;;;;17.73;10.75;;;;;;;;;;5019425;28;20137;-63
2023/03/02 10:01:24;;;;;;;24.27;12.70;;;;;;;;;;5037118;28;20045;-63
2023/03/02 10:03:55;;;;;;;25.15;13.20;;;;;;;;;;5037678;28;20049;-63
2023/03/02 10:06:20;;;;;;;19.52;12.77;;;;;;;;;;5037005;28;20539;-63
2023/03/02 10:08:45;;;;;;;22.38;12.80;;;;;;;;;;5037263;28;20026;-63
2023/03/02 10:11:23;;;;;;;21.80;11.40;;;;;;;;;;5036947;28;20144;-63
2023/03/02 10:14:01;;;;;;;19.85;11.32;;;;;;;;;;5037422;28;20030;-63
2023/03/02 10:16:50;;;;;;;24.88;15.00;;;;;;;;;;5019009;28;20049;-63
2023/03/02 10:19:24;;;;;;;26.08;18.35;;;;;;;;;;5026151;28;20053;-63
2023/03/02 10:21:51;;;;;;;19.98;12.55;;;;;;;;;;5019415;28;20397;-58
2023/03/02 10:24:36;;;;;;;14.77;9.15;;;;;;;;;;5036978;28;20049;-58
2023/03/02 10:27:11;;;;;;;11.25;7.03;;;;;;;;;;5037102;28;20167;-58
2023/03/02 10:29:39;;;;;;;12.48;8.50;;;;;;;;;;5018837;28;20037;-63
2023/03/02 10:32:21;;;;;;;16.55;10.70;;;;;;;;;;5036360;28;20042;-63
2023/03/02 10:34:48;;;;;;;17.45;8.80;;;;;;;;;;5036806;28;20538;-63
2023/03/02 10:37:16;;;;;;;15.77;9.52;;;;;;;;;;5036466;28;20120;-63
2023/03/02 10:39:41;;;;;;;15.25;9.55;;;;;;;;;;5036986;28;20029;-63
2023/03/02 10:42:10;;;;;;;14.20;9.40;;;;;;;;;;5036402;28;20144;-63
2023/03/02 10:44:38;;;;;;;16.13;8.93;;;;;;;;;;5036305;28;20041;-63
2023/03/02 10:47:04;;;;;;;14.52;8.40;;;;;;;;;;5019322;28;20541;-63
2023/03/02 10:49:29;;;;;;;16.60;7.88;;;;;;;;;;5018540;28;20044;-63
2023/03/02 10:52:15;;;;;;;13.30;8.65;;;;;;;;;;5018457;28;20046;-63
2023/03/02 10:54:41;;;;;;;14.20;10.07;;;;;;;;;;5017783;28;20029;-63
2023/03/02 10:57:25;;;;;;;12.45;7.97;;;;;;;;;;5035470;28;20394;-63
2023/03/02 10:59:51;;;;;;;13.02;9.25;;;;;;;;;;5036051;28;20478;-63
2023/03/02 11:02:16;;;;;;;13.07;7.90;;;;;;;;;;5018352;28;20043;-63
2023/03/02 11:04:42;;;;;;;14.52;9.07;;;;;;;;;;5036229;28;20029;-63
2023/03/02 11:07:07;;;;;;;12.52;8.80;;;;;;;;;;5035832;28;20034;-63
2023/03/02 11:09:33;;;;;;;16.10;10.25;;;;;;;;;;5018541;28;20068;-63
2023/03/02 11:11:59;;;;;;;15.20;10.07;;;;;;;;;;5018616;28;20061;-63
2023/03/02 11:14:25;;;;;;;16.27;9.38;;;;;;;;;;5035761;28;20045;-63
2023/03/02 11:16:51;;;;;;;23.50;14.10;;;;;;;;;;5036017;28;20051;-63
2023/03/02 11:19:22;;;;;;;62.65;24.05;;;;;;;;;;5035666;28;20499;-63
2023/03/02 11:22:11;;;;;;;15.52;9.93;;;;;;;;;;5035672;28;20124;-63
2023/03/02 11:24:43;;;;;;;11.95;8.85;;;;;;;;;;4998409;28;20052;-63
2023/03/02 11:27:35;;;;;;;16.73;11.68;;;;;;;;;;5035454;28;20034;-63
2023/03/02 11:30:10;;;;;;;22.90;17.60;;;;;;;;;;5031766;28;20477;-63
2023/03/02 11:32:40;;;;;;;19.23;13.07;;;;;;;;;;5035400;28;20103;-63
2023/03/02 11:35:11;;;;;;;19.08;13.13;;;;;;;;;;5035690;28;20135;-63
2023/03/02 11:37:36;;;;;;;;;;;;;;;;;;5001709;28;20408;-63
2023/03/02 11:40:04;;;;;;;15.57;10.57;;;;;;;;;;5035351;28;19909;-63
2023/03/02 11:42:32;;;;;;;14.77;10.30;;;;;;;;;;5035820;28;20764;-63
2023/03/02 11:45:02;;;;;;;16.10;9.35;;;;;;;;;;5035205;28;20029;-63
2023/03/02 11:47:30;;;;;;;15.32;8.80;;;;;;;;;;5017504;28;20124;-63
2023/03/02 11:49:57;;;;;;;15.85;9.23;;;;;;;;;;5035389;28;20045;-63
2023/03/02 11:52:25;;;;;;;11.15;8.18;;;;;;;;;;5017308;28;20478;-63
2023/03/02 11:55:03;;;;;;;13.18;7.90;;;;;;;;;;5034999;28;20071;-64
2023/03/02 11:57:35;;;;;;;17.80;10.00;;;;;;;;;;5034958;28;20444;-63
2023/03/02 12:00:02;;;;;;;14.23;9.32;;;;;;;;;;5035249;28;20049;-58
2023/03/02 12:02:37;;;;;;;12.00;9.05;;;;;;;;;;5035205;28;20038;-58
2023/03/02 12:05:04;;;;;;;11.60;7.40;;;;;;;;;;5035147;28;20125;-58
2023/03/02 12:07:29;;;;;;;9.63;7.18;;;;;;;;;;5034760;28;20085;-58
2023/03/02 12:09:59;;;;;;;11.55;7.00;;;;;;;;;;5033789;28;20123;-58
2023/03/02 12:12:24;;;;;;;13.07;8.10;;;;;;;;;;5034756;28;20038;-58
2023/03/02 12:14:51;;;;;;;10.05;6.88;;;;;;;;;;5034672;28;20351;-58
2023/03/02 12:17:19;;;;;;;14.40;8.43;;;;;;;;;;5034889;28;20456;-58
2023/03/02 12:19:45;;;;;;;13.02;8.25;;;;;;;;;;5016850;28;20405;-58
2023/03/02 12:22:13;;;;;;;13.00;8.50;;;;;;;;;;5034603;28;20456;-58
2023/03/02 12:24:40;;;;;;;10.70;7.43;;;;;;;;;;5034510;28;20072;-58
2023/03/02 12:27:24;;;;;;;7.03;5.25;;;;;;;;;;5034677;28;20477;-58
2023/03/02 12:30:08;;;;;;;10.15;5.72;;;;;;;;;;5017101;28;20136;-58
2023/03/02 12:32:37;;;;;;;14.02;7.97;;;;;;;;;;5032971;23;20113;-63
2023/03/02 12:35:05;;;;;;;10.95;7.78;;;;;;;;;;4985448;23;20073;-63
2023/03/02 12:37:43;;;;;;;11.77;8.02;;;;;;;;;;4994874;28;20093;-63
2023/03/02 12:40:09;;;;;;;15.18;7.85;;;;;;;;;;4995055;28;20399;-63
2023/03/02 12:42:40;;;;;;;13.55;8.20;;;;;;;;;;5010314;28;20093;-63
2023/03/02 12:45:24;;;;;;;48.92;11.40;;;;;;;;;;4995100;28;20038;-63
2023/03/02 12:47:55;;;;;;;14.68;9.65;;;;;;;;;;4995216;28;20042;-63
2023/03/02 12:50:24;;;;;;;11.00;7.47;;;;;;;;;;4994726;28;20042;-63
2023/03/02 12:53:02;;;;;;;12.00;8.60;;;;;;;;;;4994710;28;20038;-63
2023/03/02 12:55:28;;;;;;;12.85;8.20;;;;;;;;;;4994931;28;20035;-63
2023/03/02 12:57:55;;;;;;;15.43;8.55;;;;;;;;;;4994555;28;20089;-63
2023/03/02 13:00:23;;;;;;;17.27;8.48;;;;;;;;;;4994423;28;20038;-63
2023/03/02 13:02:50;;;;;;;12.57;7.88;;;;;;;;;;4994356;28;20042;-63
2023/03/02 13:05:17;;;;;;;16.00;8.85;;;;;;;;;;4976993;28;20062;-63
2023/03/02 13:07:45;;;;;;;16.63;9.40;;;;;;;;;;4976901;28;20498;-58
2023/03/02 13:10:29;;;;;;;15.80;8.77;;;;;;;;;;4994415;28;20038;-58
2023/03/02 13:12:56;;;;;;;20.52;13.15;;;;;;;;;;4994610;28;20090;-58
2023/03/02 13:15:21;;;;;;;23.88;15.05;;;;;;;;;;4994324;28;20027;-58
2023/03/02 13:17:52;;;;;;;14.75;8.98;;;;;;;;;;4994274;28;20536;-58
2023/03/02 13:20:18;;;;;;;49.75;20.83;;;;;;;;;;4994020;28;20082;-58
2023/03/02 13:22:44;;;;;;;42.53;17.40;;;;;;;;;;4994228;28;20471;-58
2023/03/02 13:25:20;;;;;;;36.60;23.58;;;;;;;;;;4994185;28;20046;-58
2023/03/02 13:27:51;;;;;;;74.00;32.75;;;;;;;;;;4976426;28;20043;-58
2023/03/02 13:30:25;;;;;;;25.30;15.40;;;;;;;;;;4994444;28;20034;-58
2023/03/02 13:32:50;;;;;;;125.30;64.57;;;;;;;;;;4994097;28;20042;-58
2023/03/02 13:35:21;;;;;;;34.30;21.70;;;;;;;;;;4976671;28;20046;-61
2023/03/02 13:37:54;;;;;;;50.13;29.35;;;;;;;;;;4994042;28;20042;-61
2023/03/02 13:40:25;;;;;;;67.70;32.97;;;;;;;;;;4994284;28;20469;-56
2023/03/02 13:42:52;;;;;;;58.17;21.52;;;;;;;;;;4994263;28;20038;-56
2023/03/02 13:45:17;;;;;;;20.02;12.20;;;;;;;;;;4993939;28;20462;-56
2023/03/02 13:47:43;;;;;;;30.35;15.35;;;;;;;;;;4993832;28;20371;-56
2023/03/02 13:50:09;;;;;;;15.18;9.95;;;;;;;;;;4994188;28;20062;-56
2023/03/02 13:52:34;;;;;;;17.73;10.23;;;;;;;;;;4994186;28;20038;-57
2023/03/02 13:54:59;;;;;;;25.80;13.93;;;;;;;;;;4993845;28;20046;-56
2023/03/02 13:57:30;;;;;;;16.90;10.52;;;;;;;;;;4994110;28;20081;-57
2023/03/02 13:59:55;;;;;;;27.23;13.80;;;;;;;;;;4993832;28;20049;-56
2023/03/02 14:02:23;;;;;;;14.60;10.85;;;;;;;;;;4994102;28;20031;-61
2023/03/02 14:04:49;;;;;;;16.48;11.25;;;;;;;;;;4994113;28;20050;-61
2023/03/02 14:07:16;;;;;;;43.15;26.95;;;;;;;;;;4993719;28;20100;-61
2023/03/02 14:09:41;;;;;;;47.13;24.55;;;;;;;;;;4994010;28;20050;-61
2023/03/02 14:12:07;;;;;;;36.70;16.60;;;;;;;;;;5008777;28;20039;-61
2023/03/02 14:14:36;;;;;;;22.13;12.52;;;;;;;;;;4993662;28;20049;-61
2023/03/02 14:17:15;;;;;;;31.38;20.02;;;;;;;;;;4993757;28;20046;-62
2023/03/02 14:19:40;;;;;;;30.23;16.10;;;;;;;;;;4993917;28;20125;-61
2023/03/02 14:22:09;;;;;;;64.28;29.83;;;;;;;;;;4993888;28;20169;-62